Time;durP1;ratioP1;P1;durP2;ratioP2;P2;SDS_P1;SDS_P2;PMS_P1;PMS_P2;Temp;Humidity;BMP_temperature;BMP_pressure;BME280_temperature;BME280_humidity;BME280_pressure;Samples;Min_cycle;Max_cycle;Signal;HPM_P1;HPM_P2
2021/07/27 00:00:33;;;;;;;8.23;6.72;;;24.20;77.90;;;;;;6288036;22;20010;-93
2021/07/27 00:03:03;;;;;;;8.90;7.18;;;24.20;78.10;;;;;;6295701;22;20078;-95
2021/07/27 00:05:30;;;;;;;6.75;6.07;;;24.10;78.40;;;;;;6295478;22;20011;-94
2021/07/27 00:07:55;;;;;;;6.93;6.22;;;24.10;78.80;;;;;;6300615;22;20075;-94
2021/07/27 00:10:22;;;;;;;7.45;6.60;;;24.10;79.00;;;;;;6294982;22;20000;-94
2021/07/27 00:12:48;;;;;;;7.72;7.03;;;24.00;79.30;;;;;;6292653;22;20021;-94
2021/07/27 00:15:14;;;;;;;8.00;6.47;;;24.00;79.60;;;;;;6296126;22;20003;-94
2021/07/27 00:17:39;;;;;;;6.93;6.18;;;23.90;79.90;;;;;;6296486;22;20004;-94
2021/07/27 00:20:06;;;;;;;7.72;6.22;;;23.90;80.30;;;;;;6294719;22;20053;-94
2021/07/27 00:22:32;;;;;;;7.28;6.57;;;23.80;80.50;;;;;;6286105;22;20004;-95
2021/07/27 00:24:58;;;;;;;7.65;6.80;;;23.80;80.80;;;;;;6284390;22;20356;-94
2021/07/27 00:27:24;;;;;;;7.65;6.63;;;23.70;81.00;;;;;;6283861;22;20010;-94
2021/07/27 00:29:50;;;;;;;7.07;6.38;;;23.70;81.20;;;;;;6283930;22;20003;-95
2021/07/27 00:32:16;;;;;;;8.23;6.97;;;23.70;81.50;;;;;;6283621;22;20502;-94
2021/07/27 00:34:42;;;;;;;9.05;7.28;;;23.70;81.70;;;;;;6283712;22;20369;-95
2021/07/27 00:37:17;;;;;;;7.75;6.03;;;23.60;82.00;;;;;;6283288;22;20016;-96
2021/07/27 00:39:43;;;;;;;7.38;6.57;;;23.60;82.20;;;;;;6283821;22;20007;-95
2021/07/27 00:42:10;;;;;;;7.45;6.65;;;23.50;82.40;;;;;;6283822;22;20003;-95
2021/07/27 00:44:36;;;;;;;7.40;6.40;;;23.50;82.70;;;;;;6283307;22;20007;-95
2021/07/27 00:47:02;;;;;;;8.05;7.10;;;23.50;82.90;;;;;;6283127;22;20003;-95
2021/07/27 00:49:29;;;;;;;6.57;5.97;;;23.50;83.10;;;;;;6283694;22;19999;-95
2021/07/27 00:51:54;;;;;;;6.85;6.25;;;23.40;83.40;;;;;;6283499;22;20003;-95
2021/07/27 00:54:20;;;;;;;8.23;7.00;;;23.40;83.60;;;;;;6283824;22;20382;-95
2021/07/27 00:56:47;;;;;;;8.05;7.25;;;23.40;83.90;;;;;;6283390;22;20053;-95
2021/07/27 00:59:13;;;;;;;9.00;7.57;;;23.30;84.10;;;;;;6283312;22;20003;-95
2021/07/27 01:01:40;;;;;;;7.65;6.95;;;23.20;84.30;;;;;;6310590;22;20022;-95
2021/07/27 01:04:06;;;;;;;8.63;7.80;;;23.20;84.60;;;;;;6310766;22;19996;-94
2021/07/27 01:06:32;;;;;;;8.18;6.70;;;23.20;84.90;;;;;;6283289;22;19999;-95
2021/07/27 01:08:59;;;;;;;7.03;6.32;;;23.10;85.10;;;;;;6283492;22;20003;-95
2021/07/27 01:11:25;;;;;;;7.18;6.47;;;23.10;85.30;;;;;;6282927;22;19999;-95
2021/07/27 01:13:52;;;;;;;7.60;6.82;;;23.00;85.60;;;;;;6283123;22;20136;-95
2021/07/27 01:16:22;;;;;;;7.90;6.57;;;23.00;85.80;;;;;;6283532;22;20003;-95
2021/07/27 01:40:49;;;;;;;7.53;6.82;;;22.70;87.10;;;;;;6320519;22;20003;-95
2021/07/27 01:43:19;;;;;;;8.50;6.97;;;22.70;87.30;;;;;;6282978;22;20326;-95
2021/07/27 01:45:44;;;;;;;7.68;6.93;;;22.70;87.50;;;;;;6282806;22;20011;-95
2021/07/27 01:48:10;;;;;;;6.78;6.15;;;22.70;87.60;;;;;;6283074;22;20041;-95
2021/07/27 01:50:36;;;;;;;7.50;6.28;;;22.70;87.70;;;;;;6282976;22;19999;-94
2021/07/27 01:53:04;;;;;;;7.82;6.57;;;22.70;87.80;;;;;;6282854;22;20336;-94
2021/07/27 01:55:34;;;;;;;7.82;7.05;;;22.70;87.90;;;;;;6308976;22;20064;-94
2021/07/27 01:58:03;;;;;;;7.20;6.53;;;22.70;88.10;;;;;;6282950;22;20000;-95
2021/07/27 02:00:31;;;;;;;7.75;7.05;;;22.70;88.20;;;;;;6282744;22;19995;-94
2021/07/27 02:02:56;;;;;;;8.65;7.15;;;22.70;88.40;;;;;;6282448;22;20082;-95
2021/07/27 02:05:22;;;;;;;7.80;6.88;;;22.60;88.40;;;;;;6282604;22;20039;-95
2021/07/27 02:07:57;;;;;;;7.30;6.60;;;22.60;88.60;;;;;;6282611;22;20086;-94
2021/07/27 02:10:25;;;;;;;7.35;6.65;;;22.60;88.60;;;;;;6282330;22;20100;-94
2021/07/27 02:12:53;;;;;;;8.63;7.10;;;22.60;88.80;;;;;;6282602;22;20003;-95
2021/07/27 02:15:21;;;;;;;7.18;6.47;;;22.60;88.90;;;;;;6308709;22;20371;-94
2021/07/27 02:17:47;;;;;;;7.90;6.90;;;22.60;88.90;;;;;;6282546;22;20361;-95
2021/07/27 02:20:14;;;;;;;7.63;6.70;;;22.60;89.10;;;;;;6282482;22;20442;-95
2021/07/27 02:22:40;;;;;;;7.63;6.82;;;22.60;89.30;;;;;;6282376;22;20035;-95
2021/07/27 02:25:08;;;;;;;8.38;7.53;;;22.50;89.30;;;;;;6282305;22;20017;-95
2021/07/27 02:27:34;;;;;;;10.20;6.88;;;22.50;89.40;;;;;;6282361;22;19999;-95
2021/07/27 02:30:00;;;;;;;7.50;6.78;;;22.50;89.60;;;;;;6282386;22;20007;-95
2021/07/27 02:32:26;;;;;;;7.90;7.07;;;22.50;89.70;;;;;;6282432;22;20017;-95
2021/07/27 02:38:15;;;;;;;7.75;6.25;;;22.50;90.00;;;;;;6309515;22;20080;-94
2021/07/27 02:40:41;;;;;;;8.70;7.47;;;22.50;90.00;;;;;;6282291;22;20475;-95
2021/07/27 02:43:07;;;;;;;7.63;6.88;;;22.50;90.10;;;;;;6282092;22;20031;-96
2021/07/27 02:45:34;;;;;;;8.05;7.25;;;22.50;90.10;;;;;;6281925;22;20011;-94
2021/07/27 02:47:59;;;;;;;8.52;7.63;;;22.50;90.20;;;;;;6285357;22;20003;-94
2021/07/27 02:50:28;;;;;;;8.40;7.60;;;22.50;90.20;;;;;;6284171;22;20377;-94
2021/07/27 02:52:55;;;;;;;8.07;7.28;;;22.50;90.30;;;;;;6282849;22;19995;-94
2021/07/27 02:55:21;;;;;;;8.00;7.20;;;22.50;90.30;;;;;;6282774;22;20522;-94
2021/07/27 02:57:48;;;;;;;8.93;8.02;;;22.50;90.30;;;;;;6283685;22;20319;-95
2021/07/27 03:00:15;;;;;;;9.98;8.45;;;22.50;90.40;;;;;;6283253;22;20010;-95
2021/07/27 03:02:45;;;;;;;8.98;8.15;;;22.60;90.40;;;;;;6282752;22;20086;-94
2021/07/27 03:05:13;;;;;;;9.10;7.93;;;22.60;90.50;;;;;;6283204;22;20358;-94
2021/07/27 03:10:21;;;;;;;14.40;8.73;;;22.70;90.50;;;;;;6320334;22;20441;-94
2021/07/27 03:12:49;;;;;;;9.80;8.10;;;22.70;90.50;;;;;;6282437;22;20003;-94
2021/07/27 03:15:16;;;;;;;9.05;8.07;;;22.70;90.50;;;;;;6282796;22;20006;-94
2021/07/27 03:17:42;;;;;;;11.52;8.68;;;22.80;90.50;;;;;;6282305;22;19995;-94
2021/07/27 03:20:14;;;;;;;9.50;8.60;;;22.80;90.50;;;;;;6282509;22;19995;-94
2021/07/27 03:22:42;;;;;;;8.88;7.88;;;22.80;90.50;;;;;;6282874;22;19999;-94
2021/07/27 03:25:13;;;;;;;9.23;8.32;;;22.90;90.50;;;;;;6282317;22;20114;-95
2021/07/27 03:27:39;;;;;;;10.02;8.75;;;22.90;90.50;;;;;;6282575;22;20004;-94
2021/07/27 03:30:06;;;;;;;11.43;8.65;;;23.00;90.50;;;;;;6282331;22;19996;-93
2021/07/27 03:32:37;;;;;;;10.77;9.00;;;23.10;90.50;;;;;;6281755;22;20003;-94
2021/07/27 03:35:04;;;;;;;8.93;8.02;;;23.20;90.40;;;;;;6283375;22;20003;-94
2021/07/27 03:37:33;;;;;;;9.82;8.02;;;23.20;90.30;;;;;;6281543;22;20015;-94
2021/07/27 03:39:59;;;;;;;9.35;8.45;;;23.30;90.20;;;;;;6282013;22;19999;-94
2021/07/27 03:42:25;;;;;;;9.15;8.25;;;23.40;90.20;;;;;;6282112;22;20082;-94
2021/07/27 03:44:58;;;;;;;9.15;8.27;;;23.50;90.10;;;;;;6281768;22;20509;-94
2021/07/27 03:47:24;;;;;;;10.35;7.45;;;23.50;90.00;;;;;;6282598;22;20002;-94
2021/07/27 03:49:50;;;;;;;9.38;8.25;;;23.60;90.00;;;;;;6281912;22;20031;-94
2021/07/27 03:52:16;;;;;;;8.93;8.02;;;23.70;89.80;;;;;;6282612;22;20002;-94
2021/07/27 03:54:42;;;;;;;8.82;8.02;;;23.80;89.70;;;;;;6286807;22;20008;-93
2021/07/27 03:57:08;;;;;;;8.77;7.88;;;23.90;89.50;;;;;;6288781;22;20093;-94
2021/07/27 03:59:34;;;;;;;8.95;8.02;;;24.00;89.10;;;;;;6287816;22;20033;-94
2021/07/27 04:02:03;;;;;;;10.82;8.30;;;24.20;88.80;;;;;;6287318;22;20011;-94
2021/07/27 04:04:33;;;;;;;9.07;8.18;;;24.30;88.30;;;;;;6284868;22;20133;-94
2021/07/27 04:07:00;;;;;;;9.82;8.15;;;24.30;88.00;;;;;;6292665;22;20004;-92
2021/07/27 04:09:27;;;;;;;9.95;8.57;;;24.50;87.50;;;;;;6301366;22;20004;-94
2021/07/27 04:11:52;;;;;;;9.73;8.35;;;24.60;86.90;;;;;;6301133;22;20015;-93
2021/07/27 04:14:18;;;;;;;10.50;9.30;;;24.70;86.10;;;;;;6303033;22;20007;-95
2021/07/27 04:16:44;;;;;;;14.48;10.35;;;24.80;85.20;;;;;;6290268;22;20004;-94
2021/07/27 04:19:10;;;;;;;11.80;10.60;;;24.90;84.20;;;;;;6287542;22;20003;-94
2021/07/27 04:21:36;;;;;;;16.42;12.98;;;25.00;82.90;;;;;;6285805;22;20025;-94
2021/07/27 04:24:02;;;;;;;15.95;14.45;;;25.20;81.90;;;;;;6283731;22;20426;-93
2021/07/27 04:26:28;;;;;;;15.98;14.45;;;25.30;81.00;;;;;;6284440;22;20010;-94
2021/07/27 04:28:55;;;;;;;14.43;13.02;;;25.40;80.10;;;;;;6283891;22;19995;-93
2021/07/27 04:31:21;;;;;;;15.65;13.25;;;25.50;79.10;;;;;;6283993;22;20003;-94
2021/07/27 04:33:47;;;;;;;17.15;11.95;;;25.60;77.70;;;;;;6285999;22;20094;-93
2021/07/27 04:36:13;;;;;;;12.23;11.02;;;25.70;76.40;;;;;;6283989;22;20508;-93
2021/07/27 04:38:39;;;;;;;12.48;11.27;;;25.80;75.50;;;;;;6283801;22;20007;-94
2021/07/27 04:41:05;;;;;;;12.57;11.38;;;26.00;74.90;;;;;;6283587;22;20406;-93
2021/07/27 04:43:31;;;;;;;12.70;11.18;;;26.10;74.20;;;;;;6284778;22;20034;-93
2021/07/27 04:45:58;;;;;;;14.55;12.98;;;26.10;73.50;;;;;;6284230;22;20007;-93
2021/07/27 04:48:24;;;;;;;15.50;13.10;;;26.30;73.00;;;;;;6284172;22;20141;-94
2021/07/27 04:50:50;;;;;;;17.52;15.40;;;26.40;72.40;;;;;;6284586;22;19999;-95
2021/07/27 04:53:21;;;;;;;15.52;13.93;;;26.50;72.10;;;;;;6284754;22;20479;-94
2021/07/27 04:55:47;;;;;;;14.27;12.82;;;26.60;72.00;;;;;;6285015;22;20009;-94
2021/07/27 04:58:13;;;;;;;13.80;11.88;;;26.70;72.00;;;;;;6284078;22;20011;-94
2021/07/27 05:00:43;;;;;;;11.15;10.05;;;26.70;71.90;;;;;;6286054;22;20129;-94
2021/07/27 05:03:09;;;;;;;11.07;10.05;;;26.90;72.00;;;;;;6286360;22;20321;-93
2021/07/27 05:05:35;;;;;;;12.95;11.52;;;26.90;71.80;;;;;;6286802;22;20032;-94
2021/07/27 05:08:02;;;;;;;11.68;10.48;;;27.00;71.60;;;;;;6284991;22;20026;-94
2021/07/27 05:10:28;;;;;;;17.10;9.50;;;27.10;71.40;;;;;;6284184;22;19999;-93
2021/07/27 05:12:54;;;;;;;9.73;8.70;;;27.20;71.30;;;;;;6283532;22;20002;-94
2021/07/27 05:15:20;;;;;;;9.23;8.32;;;27.30;71.10;;;;;;6286571;22;20004;-94
2021/07/27 05:17:56;;;;;;;8.80;7.82;;;27.40;71.00;;;;;;6283449;22;20023;-94
2021/07/27 05:20:22;;;;;;;8.63;7.75;;;27.40;70.70;;;;;;6285134;22;20086;-94
2021/07/27 05:22:51;;;;;;;8.75;7.95;;;27.50;70.40;;;;;;6286788;22;20056;-93
2021/07/27 05:25:17;;;;;;;7.97;7.18;;;27.50;70.40;;;;;;6284395;22;20427;-93
2021/07/27 05:27:44;;;;;;;8.27;7.43;;;27.50;70.70;;;;;;6283779;22;20304;-93
2021/07/27 05:30:13;;;;;;;8.93;7.38;;;27.60;71.10;;;;;;6284830;22;19999;-93
2021/07/27 05:32:42;;;;;;;8.38;6.90;;;27.60;71.20;;;;;;6285690;22;20000;-94
2021/07/27 05:35:11;;;;;;;7.63;6.93;;;27.70;71.50;;;;;;6284519;22;20084;-94
2021/07/27 05:37:37;;;;;;;7.43;6.70;;;27.70;72.00;;;;;;6281206;22;20098;-93
2021/07/27 05:40:06;;;;;;;8.25;6.07;;;27.80;71.40;;;;;;6254899;22;20431;-94
2021/07/27 05:42:32;;;;;;;6.95;6.18;;;27.80;71.30;;;;;;6255545;22;20307;-95
2021/07/27 05:44:58;;;;;;;6.53;5.68;;;27.90;71.00;;;;;;6258626;22;20008;-94
2021/07/27 05:47:24;;;;;;;6.60;6.00;;;28.00;70.60;;;;;;6255932;22;20010;-94
2021/07/27 05:49:49;;;;;;;7.28;6.22;;;28.10;70.10;;;;;;6257202;22;20419;-93
2021/07/27 05:52:18;;;;;;;7.15;6.22;;;28.10;69.50;;;;;;6253521;22;19996;-95
2021/07/27 05:54:46;;;;;;;7.20;5.78;;;28.20;69.30;;;;;;6254112;22;20004;-95
2021/07/27 05:57:13;;;;;;;6.35;5.75;;;28.30;68.90;;;;;;6253605;22;20027;-94
2021/07/27 05:59:40;;;;;;;6.30;5.70;;;28.40;68.50;;;;;;6253502;22;20001;-94
2021/07/27 06:02:07;;;;;;;6.57;5.88;;;28.50;68.20;;;;;;6254717;22;20019;-94
2021/07/27 06:04:33;;;;;;;7.13;6.38;;;28.60;67.70;;;;;;6256168;22;20031;-94
2021/07/27 06:06:59;;;;;;;9.20;6.15;;;28.60;67.40;;;;;;6255274;22;20438;-94
2021/07/27 06:09:24;;;;;;;7.55;6.22;;;28.70;66.90;;;;;;6255062;22;19992;-94
2021/07/27 06:11:50;;;;;;;9.02;6.35;;;28.80;66.50;;;;;;6253939;22;19996;-94
2021/07/27 06:14:16;;;;;;;6.03;5.43;;;28.80;66.40;;;;;;6254998;22;20004;-95
2021/07/27 06:16:42;;;;;;;6.65;5.97;;;28.90;66.30;;;;;;6253722;22;20049;-94
2021/07/27 06:19:08;;;;;;;7.13;6.22;;;29.00;66.10;;;;;;6254484;22;20003;-95
2021/07/27 06:21:38;;;;;;;7.22;6.53;;;29.10;65.70;;;;;;6254861;22;20323;-94
2021/07/27 06:24:05;;;;;;;8.63;6.40;;;29.20;65.50;;;;;;6255364;22;20003;-94
2021/07/27 06:26:31;;;;;;;8.07;6.43;;;29.20;66.00;;;;;;6253495;22;20004;-94
2021/07/27 06:29:01;;;;;;;9.52;7.28;;;29.30;65.40;;;;;;6256791;22;20002;-94
2021/07/27 06:31:26;;;;;;;8.95;7.28;;;29.40;65.40;;;;;;6282886;22;20000;-94
2021/07/27 06:33:52;;;;;;;7.70;6.90;;;29.40;65.40;;;;;;6266541;22;20003;-94
2021/07/27 06:36:18;;;;;;;7.82;7.03;;;29.40;65.30;;;;;;6258527;22;20008;-96
2021/07/27 06:38:44;;;;;;;7.30;6.60;;;29.50;65.50;;;;;;6282694;22;20011;-93
2021/07/27 06:41:11;;;;;;;8.45;7.18;;;29.50;65.20;;;;;;6264259;22;20022;-95
2021/07/27 06:43:38;;;;;;;7.75;7.05;;;29.60;65.00;;;;;;6265335;22;20000;-95
2021/07/27 06:46:04;;;;;;;7.00;6.30;;;29.60;64.90;;;;;;6289103;22;20039;-95
2021/07/27 06:48:30;;;;;;;7.57;6.80;;;29.70;65.10;;;;;;6262312;22;19996;-94
2021/07/27 06:50:56;;;;;;;10.45;6.95;;;29.70;65.30;;;;;;6253657;22;20007;-94
2021/07/27 06:53:23;;;;;;;8.68;6.85;;;29.80;65.20;;;;;;6256175;22;20004;-93
2021/07/27 06:55:49;;;;;;;7.95;7.15;;;29.90;65.30;;;;;;6261768;22;20035;-93
2021/07/27 06:58:15;;;;;;;7.22;6.18;;;29.90;65.20;;;;;;6259847;22;20000;-94
2021/07/27 07:00:44;;;;;;;7.20;6.50;;;30.00;65.00;;;;;;6256666;22;20026;-95
2021/07/27 07:03:15;;;;;;;10.88;6.68;;;30.10;64.90;;;;;;6256899;22;19999;-94
2021/07/27 07:05:42;;;;;;;7.68;6.88;;;30.10;65.00;;;;;;6256755;22;20004;-95
2021/07/27 07:08:13;;;;;;;10.15;6.65;;;30.10;64.80;;;;;;6258726;22;20003;-95
2021/07/27 07:10:42;;;;;;;7.95;7.25;;;30.20;64.80;;;;;;6262041;22;19995;-94
2021/07/27 07:13:11;;;;;;;8.75;7.35;;;30.20;64.80;;;;;;6267391;22;20059;-94
2021/07/27 07:15:40;;;;;;;8.05;6.95;;;30.30;64.50;;;;;;6260248;22;20003;-96
2021/07/27 07:18:08;;;;;;;8.52;7.72;;;30.40;64.40;;;;;;6262575;22;20019;-96
2021/07/27 07:20:33;;;;;;;8.07;7.20;;;30.40;64.20;;;;;;6259200;22;20331;-95
2021/07/27 07:23:00;;;;;;;7.10;6.40;;;30.40;63.80;;;;;;6260330;22;19999;-95
2021/07/27 07:25:29;;;;;;;8.70;7.70;;;30.50;63.50;;;;;;6257912;22;20011;-95
2021/07/27 07:27:58;;;;;;;7.60;6.90;;;30.50;63.40;;;;;;6258411;22;20000;-94
2021/07/27 07:30:26;;;;;;;7.40;6.70;;;30.60;63.60;;;;;;6263211;22;20004;-94
2021/07/27 07:32:52;;;;;;;7.70;7.00;;;30.60;63.40;;;;;;6263184;22;20031;-94
2021/07/27 07:35:23;;;;;;;8.13;7.28;;;30.70;63.30;;;;;;6260224;22;20008;-95
2021/07/27 07:37:49;;;;;;;7.38;6.68;;;30.70;63.10;;;;;;6272275;22;20025;-94
2021/07/27 07:40:15;;;;;;;9.38;7.32;;;30.70;63.00;;;;;;6287952;22;19995;-94
2021/07/27 07:42:41;;;;;;;9.70;7.75;;;30.70;62.90;;;;;;6286834;22;20073;-94
2021/07/27 07:45:08;;;;;;;8.55;7.65;;;30.80;63.10;;;;;;6285180;22;20090;-94
2021/07/27 07:47:33;;;;;;;9.20;7.65;;;30.80;63.00;;;;;;6287796;22;20000;-94
2021/07/27 07:50:00;;;;;;;11.52;7.30;;;30.80;63.00;;;;;;6287376;22;20019;-94
2021/07/27 07:52:47;;;;;;;8.48;7.60;;;30.80;63.00;;;;;;6286592;22;20457;-95
2021/07/27 07:55:15;;;;;;;8.77;7.82;;;30.90;62.90;;;;;;6273837;22;20415;-94
2021/07/27 07:57:41;;;;;;;9.90;8.00;;;30.90;62.90;;;;;;6291527;22;20449;-94
2021/07/27 08:00:10;;;;;;;10.35;8.35;;;30.90;62.70;;;;;;6292597;22;19996;-95
2021/07/27 08:02:36;;;;;;;10.27;9.20;;;30.90;62.80;;;;;;6290546;22;20049;-94
2021/07/27 08:05:02;;;;;;;9.43;8.20;;;30.90;62.70;;;;;;6294580;22;20011;-94
2021/07/27 08:07:30;;;;;;;9.27;8.40;;;30.90;62.80;;;;;;6292951;22;20003;-94
2021/07/27 08:09:56;;;;;;;11.70;9.20;;;30.90;62.90;;;;;;6294725;22;20031;-95
2021/07/27 08:12:36;;;;;;;10.40;9.27;;;30.90;63.10;;;;;;6297706;22;19995;-95
2021/07/27 08:15:04;;;;;;;9.57;8.57;;;30.90;63.10;;;;;;6291960;22;19999;-95
2021/07/27 08:17:35;;;;;;;9.23;8.32;;;30.90;62.90;;;;;;6295043;22;20010;-94
2021/07/27 08:20:04;;;;;;;9.38;8.45;;;30.90;63.00;;;;;;6296017;22;19999;-95
2021/07/27 08:22:39;;;;;;;10.98;9.05;;;30.90;63.10;;;;;;6296215;22;19999;-95
2021/07/27 08:25:15;;;;;;;9.90;8.50;;;30.90;63.00;;;;;;6297491;22;20067;-95
2021/07/27 08:27:48;;;;;;;8.07;7.28;;;30.90;63.00;;;;;;6298090;22;19995;-95
2021/07/27 08:30:17;;;;;;;8.82;8.02;;;31.00;63.10;;;;;;6297627;22;19995;-94
2021/07/27 08:32:47;;;;;;;9.00;7.43;;;31.00;63.00;;;;;;6294586;22;20063;-95
2021/07/27 08:35:15;;;;;;;8.15;7.05;;;31.00;63.00;;;;;;6293210;22;20085;-95
2021/07/27 08:37:44;;;;;;;8.43;6.68;;;31.10;62.90;;;;;;6289225;22;20094;-95
2021/07/27 09:42:15;;;;;;;;;;;;;;;;;;;;;
2021/07/27 09:52:19;;;;;;;;;;;;;;;;;;;;;
2021/07/27 09:54:55;;;;;;;8.07;6.57;;;31.90;56.80;;;;;;6098946;23;20063;-88
2021/07/27 10:00:29;;;;;;;6.70;5.00;;;31.90;55.10;;;;;;6278414;22;19999;-91
2021/07/27 10:03:02;;;;;;;6.68;5.50;;;31.90;54.90;;;;;;6252527;22;20375;-89
2021/07/27 10:05:34;;;;;;;6.72;5.10;;;31.90;54.70;;;;;;6257819;22;20022;-89
2021/07/27 10:08:00;;;;;;;5.95;4.95;;;31.90;53.80;;;;;;6267757;22;20118;-93
2021/07/27 10:10:43;;;;;;;5.55;4.50;;;31.90;53.60;;;;;;6280706;22;20011;-93
2021/07/27 10:13:13;;;;;;;;;;;32.00;53.40;;;;;;6284414;22;20063;-92
2021/07/27 10:15:40;;;;;;;4.85;4.10;;;32.00;52.40;;;;;;6281649;22;19930;-93
2021/07/27 10:18:06;;;;;;;4.72;4.18;;;32.10;52.90;;;;;;6282854;22;20083;-93
2021/07/27 10:20:35;;;;;;;3.80;3.47;;;32.10;52.60;;;;;;6258570;22;19996;-93
2021/07/27 10:23:19;;;;;;;4.07;3.72;;;32.20;51.30;;;;;;6283208;22;20004;-92
2021/07/27 10:25:57;;;;;;;4.15;3.70;;;32.30;50.40;;;;;;6279446;22;20377;-90
2021/07/27 10:28:27;;;;;;;4.15;3.75;;;32.30;50.20;;;;;;6281052;22;20000;-93
2021/07/27 10:31:06;;;;;;;4.07;3.67;;;32.40;50.10;;;;;;6284113;22;20000;-92
2021/07/27 10:33:33;;;;;;;3.50;3.20;;;32.40;49.20;;;;;;6282202;22;19996;-92
2021/07/27 10:35:59;;;;;;;3.13;2.83;;;32.50;49.20;;;;;;6282730;22;20105;-92
2021/07/27 10:38:47;;;;;;;;;;;;;;;;;;;;;
2021/07/27 10:41:18;;;;;;;4.13;3.00;;;32.60;47.90;;;;;;6287037;22;20019;-93
2021/07/27 10:43:55;;;;;;;6.65;3.97;;;32.60;48.40;;;;;;6283574;22;20003;-94
2021/07/27 10:46:33;;;;;;;3.50;3.20;;;32.50;48.20;;;;;;6283825;22;20402;-93
2021/07/27 10:49:01;;;;;;;5.45;3.25;;;32.40;46.80;;;;;;6285026;22;20012;-93
2021/07/27 10:51:36;;;;;;;3.33;3.03;;;32.30;47.30;;;;;;6289185;22;20283;-93
2021/07/27 10:54:07;;;;;;;4.03;3.15;;;32.20;47.00;;;;;;6312618;22;20000;-92
2021/07/27 10:56:40;;;;;;;4.25;3.78;;;32.10;46.60;;;;;;6284420;22;19999;-93
2021/07/27 10:59:06;;;;;;;;;;;31.90;46.20;;;;;;6289955;22;20050;-92
2021/07/27 11:01:33;;;;;;;7.95;3.40;;;31.80;46.00;;;;;;6284671;22;20275;-93
2021/07/27 11:04:25;;;;;;;3.85;2.88;;;31.80;46.70;;;;;;6284581;22;20027;-94
2021/07/27 11:06:51;;;;;;;3.42;3.00;;;31.80;46.60;;;;;;6261508;22;20073;-94
2021/07/27 11:09:17;;;;;;;3.20;2.90;;;31.90;46.80;;;;;;6259677;22;20000;-94
2021/07/27 11:11:46;;;;;;;4.80;3.85;;;32.00;46.80;;;;;;6254208;22;20000;-93
2021/07/27 11:14:32;;;;;;;3.60;2.80;;;32.10;46.40;;;;;;6255282;22;20449;-94
2021/07/27 11:16:58;;;;;;;3.28;2.92;;;32.10;45.50;;;;;;6253014;22;20003;-93
2021/07/27 11:19:27;;;;;;;5.07;3.15;;;32.20;46.10;;;;;;6254643;22;20361;-93
2021/07/27 11:21:58;;;;;;;3.33;3.03;;;32.20;45.80;;;;;;6255659;22;19996;-94
2021/07/27 11:24:29;;;;;;;4.13;2.72;;;32.30;45.50;;;;;;6285262;22;19992;-92
2021/07/27 11:26:56;;;;;;;3.55;3.13;;;32.40;45.10;;;;;;6256444;22;20056;-91
2021/07/27 11:29:27;;;;;;;4.30;3.53;;;32.40;44.70;;;;;;6254814;22;19996;-93
2021/07/27 11:32:25;;;;;;;4.20;3.22;;;32.40;44.60;;;;;;6258170;22;19996;-91
2021/07/27 11:35:24;;;;;;;4.07;3.45;;;32.40;45.00;;;;;;6250370;22;20010;-93
2021/07/27 11:38:07;;;;;;;3.13;2.83;;;32.40;44.90;;;;;;6256958;22;20000;-93
2021/07/27 11:40:33;;;;;;;6.10;2.83;;;32.50;45.10;;;;;;6254488;22;20000;-94
2021/07/27 11:43:09;;;;;;;3.40;3.10;;;32.50;45.40;;;;;;6281637;22;20046;-95
2021/07/27 11:45:45;;;;;;;5.25;3.53;;;32.60;45.40;;;;;;6253373;22;20023;-94
2021/07/27 11:48:12;;;;;;;4.88;3.13;;;32.60;44.70;;;;;;6253040;22;20067;-94
2021/07/27 11:50:40;;;;;;;3.03;2.70;;;32.70;44.80;;;;;;6252813;22;20000;-93
2021/07/27 11:53:22;;;;;;;3.67;2.85;;;32.70;44.80;;;;;;6252219;22;19996;-95
2021/07/27 11:55:51;;;;;;;4.53;3.00;;;32.70;44.70;;;;;;6276414;22;20014;-93
2021/07/27 11:58:28;;;;;;;5.35;3.30;;;32.80;44.50;;;;;;6254318;22;20000;-94
2021/07/27 12:00:59;;;;;;;4.28;3.47;;;32.80;43.70;;;;;;6253178;22;20003;-94
2021/07/27 12:03:25;;;;;;;5.82;3.42;;;32.80;43.50;;;;;;6255844;22;20004;-94
2021/07/27 12:06:01;;;;;;;;;;;;;;;;;;;;;
2021/07/27 12:08:29;;;;;;;8.00;3.70;;;32.80;43.20;;;;;;6308675;22;20046;-93
2021/07/27 12:11:01;;;;;;;5.57;3.67;;;32.90;43.40;;;;;;6285678;22;20010;-95
2021/07/27 12:13:29;;;;;;;3.23;2.90;;;33.00;43.50;;;;;;6286379;22;20003;-94
2021/07/27 12:15:54;;;;;;;4.13;3.30;;;33.20;43.70;;;;;;6286843;22;20037;-95
2021/07/27 12:18:21;;;;;;;3.25;2.95;;;33.30;43.30;;;;;;6287795;22;20060;-93
2021/07/27 12:20:47;;;;;;;3.20;2.90;;;33.50;43.30;;;;;;6283179;22;20090;-92
2021/07/27 12:23:20;;;;;;;4.07;3.67;;;33.70;42.80;;;;;;6284249;22;20003;-92
2021/07/27 12:25:49;;;;;;;3.20;2.90;;;33.80;42.00;;;;;;6284754;22;20385;-92
2021/07/27 12:28:18;;;;;;;3.50;3.20;;;34.00;42.10;;;;;;6285185;22;20078;-91
2021/07/27 12:30:47;;;;;;;4.00;3.58;;;34.20;42.20;;;;;;6287918;22;20065;-93
2021/07/27 12:33:38;;;;;;;2.88;2.63;;;34.50;42.40;;;;;;6286857;22;20021;-93
2021/07/27 12:36:10;;;;;;;6.15;3.55;;;35.00;41.80;;;;;;6290367;22;20079;-94
2021/07/27 12:38:38;;;;;;;4.68;3.38;;;35.50;41.90;;;;;;6315690;22;19995;-94
2021/07/27 12:41:07;;;;;;;3.20;2.90;;;35.90;41.50;;;;;;6289061;22;20003;-94
2021/07/27 12:43:35;;;;;;;3.38;3.08;;;36.30;41.20;;;;;;6314503;22;20010;-93
2021/07/27 12:46:01;;;;;;;2.95;2.75;;;36.60;40.70;;;;;;6288804;22;20085;-93
2021/07/27 12:48:32;;;;;;;6.13;3.47;;;36.90;40.40;;;;;;6286519;22;20023;-93
2021/07/27 12:51:05;;;;;;;3.92;3.50;;;37.20;39.00;;;;;;6284282;22;20010;-93
2021/07/27 12:53:32;;;;;;;4.00;3.40;;;37.40;38.70;;;;;;6311719;22;20006;-94
2021/07/27 12:56:00;;;;;;;4.40;3.88;;;37.50;38.30;;;;;;6287740;22;20011;-94
2021/07/27 12:58:26;;;;;;;4.30;3.25;;;37.60;38.20;;;;;;6285081;22;19999;-93
2021/07/27 13:00:51;;;;;;;4.78;3.47;;;37.80;38.30;;;;;;6283208;22;20069;-91
2021/07/27 13:03:20;;;;;;;3.75;3.33;;;38.10;38.10;;;;;;6285518;22;20118;-93
2021/07/27 13:05:46;;;;;;;3.38;3.08;;;38.40;38.20;;;;;;6282855;22;20099;-94
2021/07/27 13:08:13;;;;;;;3.13;2.83;;;38.60;38.10;;;;;;6290227;22;20057;-93
2021/07/27 13:10:39;;;;;;;4.68;2.95;;;38.90;38.00;;;;;;6251478;22;20072;-92
2021/07/27 13:13:13;;;;;;;3.35;3.05;;;39.20;37.90;;;;;;6251635;22;20000;-93
2021/07/27 13:15:40;;;;;;;3.33;3.03;;;39.60;37.50;;;;;;6255529;22;20000;-92
2021/07/27 13:18:06;;;;;;;5.07;3.22;;;39.80;36.80;;;;;;6253668;22;19995;-93
2021/07/27 13:20:35;;;;;;;5.97;3.38;;;40.00;36.70;;;;;;6251414;22;20007;-93
2021/07/27 13:23:01;;;;;;;3.50;2.95;;;40.20;36.20;;;;;;6252628;22;20010;-93
2021/07/27 13:25:27;;;;;;;3.35;3.05;;;40.50;36.30;;;;;;6250126;22;20010;-93
2021/07/27 13:27:55;;;;;;;4.30;3.20;;;40.60;35.60;;;;;;6252651;22;20019;-92
2021/07/27 13:30:24;;;;;;;4.32;2.85;;;40.80;35.30;;;;;;6253303;22;20000;-94
2021/07/27 13:32:57;;;;;;;3.75;3.25;;;41.00;35.10;;;;;;6253918;22;20003;-94
2021/07/27 13:35:31;;;;;;;2.90;2.70;;;41.20;35.30;;;;;;6254988;22;20011;-93
2021/07/27 13:37:57;;;;;;;3.45;3.15;;;41.50;35.20;;;;;;6253664;22;20038;-93
2021/07/27 13:40:24;;;;;;;3.15;2.85;;;41.80;35.20;;;;;;6255087;22;19996;-93
2021/07/27 13:42:49;;;;;;;3.72;3.42;;;42.20;34.80;;;;;;6253084;22;20062;-92
2021/07/27 13:45:15;;;;;;;3.40;3.13;;;42.40;33.80;;;;;;6254391;22;20375;-93
2021/07/27 13:47:45;;;;;;;4.53;4.05;;;42.30;33.50;;;;;;6251707;22;20038;-93
2021/07/27 13:50:11;;;;;;;3.28;3.03;;;42.20;32.50;;;;;;6251504;22;19999;-92
2021/07/27 13:52:37;;;;;;;4.32;2.92;;;41.80;32.50;;;;;;6252190;22;20296;-92
2021/07/27 13:55:05;;;;;;;3.50;3.15;;;41.60;33.00;;;;;;6279479;22;20003;-92
2021/07/27 13:57:34;;;;;;;3.63;3.33;;;41.50;33.40;;;;;;6256321;22;20038;-93
2021/07/27 14:00:34;;;;;;;4.65;3.70;;;41.60;33.40;;;;;;6255594;22;20022;-93
2021/07/27 14:03:03;;;;;;;3.65;3.35;;;41.80;32.70;;;;;;6246774;22;20110;-93
2021/07/27 14:05:39;;;;;;;3.63;3.20;;;41.80;33.00;;;;;;6257669;22;20008;-93
2021/07/27 14:08:10;;;;;;;3.53;3.00;;;41.80;32.80;;;;;;6252880;22;20385;-93
2021/07/27 14:10:36;;;;;;;3.65;3.10;;;41.80;33.30;;;;;;6283956;22;19999;-92
2021/07/27 14:13:06;;;;;;;3.60;3.05;;;41.80;33.40;;;;;;6258564;22;19999;-94
2021/07/27 14:15:35;;;;;;;3.47;3.17;;;42.00;33.40;;;;;;6255416;22;20496;-93
2021/07/27 14:18:05;;;;;;;3.22;2.95;;;42.20;33.50;;;;;;6279100;22;19999;-93
2021/07/27 14:20:35;;;;;;;3.10;2.80;;;42.50;33.40;;;;;;6255332;22;20434;-94
2021/07/27 14:23:02;;;;;;;4.05;3.25;;;42.70;33.20;;;;;;6253192;22;19996;-91
2021/07/27 14:25:35;;;;;;;4.25;3.85;;;42.80;32.90;;;;;;6252921;22;20008;-92
2021/07/27 14:28:04;;;;;;;3.47;3.22;;;42.80;32.40;;;;;;6253377;22;19999;-90
2021/07/27 14:30:30;;;;;;;4.43;3.22;;;42.70;32.30;;;;;;6252357;22;20007;-91
2021/07/27 14:32:56;;;;;;;3.60;3.30;;;42.40;32.20;;;;;;6251001;22;20000;-93
2021/07/27 14:35:48;;;;;;;3.88;3.13;;;42.20;32.40;;;;;;6248967;22;20006;-93
2021/07/27 14:38:22;;;;;;;3.33;3.10;;;42.00;32.50;;;;;;6254762;22;20536;-94